Time;durP1;ratioP1;P1;durP2;ratioP2;P2;SDS_P1;SDS_P2;PMS_P1;PMS_P2;Temp;Humidity;BMP_temperature;BMP_pressure;BME280_temperature;BME280_humidity;BME280_pressure;Samples;Min_cycle;Max_cycle;Signal;HPM_P1;HPM_P2
2023/05/29 00:00:31;;;;;;;17.38;3.60;;;12.40;99.90;;;;;;5004847;28;20484;-62
2023/05/29 00:02:57;;;;;;;14.23;3.30;;;12.30;99.90;;;;;;4999124;28;20056;-61
2023/05/29 00:05:22;;;;;;;15.77;3.40;;;12.30;99.90;;;;;;4992849;28;20480;-62
2023/05/29 00:07:50;;;;;;;14.27;3.78;;;12.30;99.90;;;;;;5009443;28;20046;-64
2023/05/29 00:10:16;;;;;;;16.02;3.78;;;12.20;99.90;;;;;;4985064;28;20411;-62
2023/05/29 00:12:42;;;;;;;21.58;3.65;;;12.20;99.90;;;;;;5010411;28;20046;-64
2023/05/29 00:15:10;;;;;;;14.25;3.80;;;12.20;99.90;;;;;;4996161;28;20031;-64
2023/05/29 00:17:36;;;;;;;19.88;3.35;;;12.10;99.90;;;;;;4982704;28;20134;-65
2023/05/29 00:20:09;;;;;;;9.93;3.10;;;12.10;99.90;;;;;;4994317;28;20150;-64
2023/05/29 00:22:37;;;;;;;16.77;3.53;;;12.10;99.90;;;;;;4985566;28;20377;-64
2023/05/29 00:25:07;;;;;;;15.52;4.28;;;12.00;99.90;;;;;;5005339;28;20038;-63
2023/05/29 00:27:33;;;;;;;17.15;3.47;;;12.00;99.90;;;;;;5014622;28;20081;-63
2023/05/29 00:30:03;;;;;;;16.80;3.38;;;12.00;99.90;;;;;;4991051;28;20038;-64
2023/05/29 00:32:28;;;;;;;13.13;3.25;;;12.00;99.90;;;;;;4989176;28;20037;-63
2023/05/29 00:34:55;;;;;;;16.50;3.25;;;11.90;99.90;;;;;;4999347;28;20053;-63
2023/05/29 00:37:21;;;;;;;13.90;3.53;;;11.90;99.90;;;;;;5013595;28;20038;-63
2023/05/29 00:39:47;;;;;;;16.88;3.42;;;11.90;99.90;;;;;;5008687;28;20109;-63
2023/05/29 00:42:13;;;;;;;16.13;3.42;;;11.90;99.90;;;;;;4988135;28;20049;-63
2023/05/29 00:44:39;;;;;;;16.88;3.28;;;11.90;99.90;;;;;;4980348;28;20117;-63
2023/05/29 00:47:05;;;;;;;16.45;3.00;;;11.80;99.90;;;;;;5006081;28;20137;-63
2023/05/29 00:49:31;;;;;;;11.88;3.33;;;11.80;99.90;;;;;;4994701;28;20039;-63
2023/05/29 00:51:57;;;;;;;19.80;3.40;;;11.80;99.90;;;;;;4989198;28;20076;-63
2023/05/29 00:54:29;;;;;;;14.77;3.15;;;11.80;99.90;;;;;;4990490;28;20038;-63
2023/05/29 00:56:57;;;;;;;18.15;3.65;;;11.70;99.90;;;;;;5007830;28;20384;-63
2023/05/29 00:59:23;;;;;;;19.20;3.85;;;11.70;99.90;;;;;;5005357;28;20124;-63
2023/05/29 01:01:52;;;;;;;14.98;3.70;;;11.70;99.90;;;;;;5005370;28;20501;-63
2023/05/29 01:04:18;;;;;;;19.25;3.40;;;11.70;99.90;;;;;;5013235;28;20044;-63
2023/05/29 01:06:44;;;;;;;16.17;3.28;;;11.60;99.90;;;;;;5013718;28;20034;-63
2023/05/29 01:09:10;;;;;;;16.77;3.42;;;11.60;99.90;;;;;;5007902;28;20030;-63
2023/05/29 01:12:07;;;;;;;17.70;3.00;;;11.60;99.90;;;;;;4995324;28;20510;-63
2023/05/29 01:14:44;;;;;;;14.30;3.28;;;11.60;99.90;;;;;;5000557;28;20042;-62
2023/05/29 01:17:51;;;;;;;13.27;3.17;;;11.60;99.90;;;;;;5002271;28;20038;-63
2023/05/29 01:20:22;;;;;;;14.85;3.42;;;11.50;99.90;;;;;;5003354;28;20061;-63
2023/05/29 01:23:05;;;;;;;10.60;2.95;;;11.50;99.90;;;;;;4992896;28;20404;-63
2023/05/29 01:26:01;;;;;;;19.40;3.65;;;11.50;99.90;;;;;;4985937;28;20038;-63
2023/05/29 01:28:57;;;;;;;17.05;3.85;;;11.40;99.90;;;;;;5002863;28;20440;-63
2023/05/29 01:31:25;;;;;;;16.95;3.33;;;11.40;99.90;;;;;;4997985;28;20385;-63
2023/05/29 01:33:58;;;;;;;17.73;3.53;;;11.30;99.90;;;;;;5012454;28;20096;-63
2023/05/29 01:36:24;;;;;;;16.73;3.28;;;11.30;99.90;;;;;;5008706;28;20352;-63
2023/05/29 01:38:52;;;;;;;16.75;3.58;;;11.30;99.90;;;;;;4992918;28;20484;-63
2023/05/29 01:41:20;;;;;;;15.02;3.40;;;11.30;99.90;;;;;;5007338;28;20491;-63
2023/05/29 01:43:47;;;;;;;16.13;3.17;;;11.30;99.90;;;;;;4993189;28;20875;-63
2023/05/29 01:46:14;;;;;;;19.70;3.20;;;11.30;99.90;;;;;;4995097;28;20045;-63
2023/05/29 01:48:41;;;;;;;21.25;3.45;;;11.30;99.90;;;;;;4975837;28;20034;-63
2023/05/29 01:51:08;;;;;;;15.40;3.65;;;11.30;99.90;;;;;;5000660;28;20056;-63
2023/05/29 01:53:34;;;;;;;18.00;3.45;;;11.20;99.90;;;;;;4996892;28;20034;-63
2023/05/29 01:56:00;;;;;;;12.93;3.25;;;11.20;99.90;;;;;;5004814;28;20121;-63
2023/05/29 01:58:27;;;;;;;13.35;3.45;;;11.20;99.90;;;;;;5005106;28;20041;-63
2023/05/29 02:00:55;;;;;;;19.95;3.45;;;11.30;99.90;;;;;;5012422;28;20038;-63
2023/05/29 02:03:21;;;;;;;14.13;2.97;;;11.20;99.90;;;;;;5007356;28;20172;-63
2023/05/29 02:05:46;;;;;;;14.73;2.88;;;11.10;99.90;;;;;;5002493;28;20060;-63
2023/05/29 02:08:12;;;;;;;11.63;2.92;;;11.10;99.90;;;;;;5001869;28;20030;-63
2023/05/29 02:10:38;;;;;;;15.20;3.08;;;11.10;99.90;;;;;;5012778;28;20112;-63
2023/05/29 02:13:03;;;;;;;13.18;3.00;;;11.10;99.90;;;;;;4986427;28;20044;-63
2023/05/29 02:15:29;;;;;;;20.25;3.15;;;11.00;99.90;;;;;;4986154;28;20512;-63
2023/05/29 02:17:55;;;;;;;15.27;3.17;;;11.00;99.90;;;;;;4987382;28;20050;-63
2023/05/29 02:20:21;;;;;;;18.17;3.58;;;11.00;99.90;;;;;;4992395;28;20060;-63
2023/05/29 02:22:46;;;;;;;12.80;2.88;;;11.00;99.90;;;;;;4990620;28;20042;-63
2023/05/29 02:25:12;;;;;;;14.43;3.45;;;11.00;99.90;;;;;;4990786;28;20057;-63
2023/05/29 02:27:37;;;;;;;12.90;3.28;;;11.00;99.90;;;;;;5010762;28;20492;-63
2023/05/29 02:30:05;;;;;;;15.43;3.25;;;10.90;99.90;;;;;;4996917;28;20084;-63
2023/05/29 02:32:31;;;;;;;17.83;3.30;;;10.90;99.90;;;;;;5001877;28;20043;-63
2023/05/29 02:34:57;;;;;;;12.45;3.42;;;10.90;99.90;;;;;;5002365;28;20113;-63
2023/05/29 02:37:25;;;;;;;14.30;2.88;;;10.90;99.90;;;;;;5012154;28;20088;-63
2023/05/29 02:39:51;;;;;;;16.85;3.33;;;10.90;99.90;;;;;;4998738;28;20493;-63
2023/05/29 02:42:17;;;;;;;15.23;3.33;;;10.90;99.90;;;;;;5011090;28;20048;-63
2023/05/29 02:44:43;;;;;;;16.55;3.22;;;10.80;99.90;;;;;;5005381;28;20113;-62
2023/05/29 02:47:08;;;;;;;16.90;3.15;;;10.80;99.90;;;;;;4994451;28;20113;-63
2023/05/29 02:49:34;;;;;;;12.48;2.75;;;10.80;99.90;;;;;;4994357;28;20033;-63
2023/05/29 02:52:00;;;;;;;16.92;3.22;;;10.80;99.90;;;;;;4999495;28;20552;-63
2023/05/29 02:54:25;;;;;;;17.10;3.25;;;10.80;99.90;;;;;;5009606;28;20034;-62
2023/05/29 02:56:51;;;;;;;15.20;3.42;;;10.70;99.90;;;;;;4992508;28;20128;-63
2023/05/29 02:59:17;;;;;;;16.20;3.60;;;10.70;99.90;;;;;;5002604;28;20087;-63
2023/05/29 03:01:43;;;;;;;15.98;3.40;;;10.70;99.90;;;;;;5008331;28;20037;-63
2023/05/29 03:04:10;;;;;;;17.80;3.08;;;10.70;99.90;;;;;;4989961;28;20037;-63
2023/05/29 03:06:36;;;;;;;13.75;3.75;;;10.70;99.90;;;;;;5001254;28;20516;-63
2023/05/29 03:09:05;;;;;;;17.88;3.15;;;10.60;99.90;;;;;;5007931;28;20042;-63
2023/05/29 03:11:32;;;;;;;14.75;3.13;;;10.60;99.90;;;;;;4990438;28;20050;-63
2023/05/29 03:13:58;;;;;;;14.30;3.13;;;10.60;99.90;;;;;;5000810;28;20053;-63
2023/05/29 03:16:25;;;;;;;18.92;3.55;;;10.60;99.90;;;;;;4984038;28;20045;-63
2023/05/29 03:18:50;;;;;;;13.30;3.15;;;10.60;99.90;;;;;;4983105;28;20116;-63
2023/05/29 03:21:16;;;;;;;14.00;3.22;;;10.50;99.90;;;;;;5011390;28;20046;-63
2023/05/29 03:23:42;;;;;;;17.15;3.30;;;10.50;99.90;;;;;;5002840;28;20030;-63
2023/05/29 03:26:08;;;;;;;12.00;3.35;;;10.50;99.90;;;;;;4981946;28;20040;-63
2023/05/29 03:28:34;;;;;;;16.38;3.53;;;10.40;99.90;;;;;;4982495;28;20042;-63
2023/05/29 03:30:59;;;;;;;14.75;2.92;;;10.40;99.90;;;;;;4989316;28;20408;-63
2023/05/29 03:33:25;;;;;;;14.20;3.10;;;10.40;99.90;;;;;;5001073;28;20031;-63
2023/05/29 03:35:51;;;;;;;14.68;3.80;;;10.40;99.90;;;;;;4998508;28;20034;-63
2023/05/29 03:38:16;;;;;;;16.05;4.47;;;10.30;99.90;;;;;;5006035;28;20477;-63
2023/05/29 03:40:42;;;;;;;13.82;3.17;;;10.30;99.90;;;;;;4990668;28;20435;-63
2023/05/29 03:43:11;;;;;;;19.95;3.33;;;10.30;99.90;;;;;;5010765;28;20489;-63
2023/05/29 03:45:36;;;;;;;14.13;3.15;;;10.30;99.90;;;;;;5003078;28;20042;-62
2023/05/29 03:48:02;;;;;;;16.30;3.20;;;10.30;99.90;;;;;;5000970;28;20038;-63
2023/05/29 03:50:28;;;;;;;17.15;3.20;;;10.20;99.90;;;;;;4997974;28;20548;-63
2023/05/29 03:52:53;;;;;;;16.30;3.28;;;10.20;99.90;;;;;;4987082;28;20504;-63
2023/05/29 03:55:19;;;;;;;17.08;3.00;;;10.20;99.90;;;;;;4987854;28;20045;-63
2023/05/29 03:57:44;;;;;;;12.60;3.42;;;10.10;99.90;;;;;;4996602;28;20042;-62
2023/05/29 04:00:11;;;;;;;12.18;3.35;;;10.10;99.90;;;;;;4988184;28;20442;-63
2023/05/29 04:02:41;;;;;;;11.95;3.00;;;10.00;99.90;;;;;;4985625;28;20504;-63
2023/05/29 04:05:08;;;;;;;12.85;3.08;;;10.00;99.90;;;;;;4979264;28;20105;-63
2023/05/29 04:07:36;;;;;;;14.18;3.22;;;10.00;99.90;;;;;;4981412;28;20555;-63
2023/05/29 04:10:02;;;;;;;13.95;3.10;;;10.00;99.90;;;;;;4984532;28;20046;-63
2023/05/29 04:12:28;;;;;;;16.63;3.22;;;10.00;99.90;;;;;;5002948;28;20514;-63
2023/05/29 04:14:54;;;;;;;13.70;3.72;;;10.00;99.90;;;;;;4990573;28;20045;-63
2023/05/29 04:17:19;;;;;;;18.25;3.45;;;10.00;99.90;;;;;;4996006;28;20038;-63
2023/05/29 04:19:45;;;;;;;11.35;3.08;;;9.90;99.90;;;;;;5001898;28;20168;-62
2023/05/29 04:22:11;;;;;;;12.60;2.97;;;9.90;99.90;;;;;;5006680;28;20045;-63
2023/05/29 04:24:36;;;;;;;17.85;3.25;;;9.90;99.90;;;;;;4988879;28;20038;-63
2023/05/29 04:27:02;;;;;;;17.35;3.75;;;9.90;99.90;;;;;;5007508;28;20041;-63
2023/05/29 04:29:32;;;;;;;11.45;3.00;;;10.00;99.90;;;;;;4977525;28;20045;-63
2023/05/29 04:31:58;;;;;;;14.23;3.47;;;10.00;99.90;;;;;;4979815;28;20176;-63
2023/05/29 04:34:23;;;;;;;16.77;3.20;;;10.00;99.90;;;;;;4999699;28;20113;-62
2023/05/29 04:36:49;;;;;;;16.25;3.17;;;10.10;99.90;;;;;;5007890;28;20041;-63
2023/05/29 04:39:15;;;;;;;16.65;3.40;;;10.10;99.90;;;;;;4980383;28;20061;-63
2023/05/29 04:41:41;;;;;;;16.50;3.53;;;10.10;99.90;;;;;;5007411;28;20496;-63
2023/05/29 04:44:08;;;;;;;12.82;3.15;;;10.10;99.90;;;;;;4992293;28;20030;-63
2023/05/29 04:46:34;;;;;;;15.85;3.45;;;10.20;99.90;;;;;;4992777;28;20048;-63
2023/05/29 04:49:02;;;;;;;12.57;3.13;;;10.20;99.90;;;;;;4990102;28;20396;-63
2023/05/29 04:51:29;;;;;;;15.90;3.17;;;10.20;99.90;;;;;;4998286;28;20067;-63
2023/05/29 04:53:56;;;;;;;15.50;3.17;;;10.20;99.90;;;;;;4992579;28;20060;-63
2023/05/29 04:56:22;;;;;;;13.75;3.20;;;10.20;99.90;;;;;;5009396;28;20491;-63
2023/05/29 04:58:47;;;;;;;13.48;3.58;;;10.20;99.90;;;;;;4995818;28;20038;-63
2023/05/29 05:01:14;;;;;;;16.25;3.88;;;10.20;99.90;;;;;;4982979;28;20093;-63
2023/05/29 05:03:43;;;;;;;13.52;2.95;;;10.20;99.90;;;;;;5010423;28;20135;-63
2023/05/29 05:06:10;;;;;;;10.68;3.22;;;10.30;99.90;;;;;;4992419;28;20392;-63
2023/05/29 05:08:35;;;;;;;13.38;3.15;;;10.30;99.90;;;;;;4987966;28;20098;-63
2023/05/29 05:11:01;;;;;;;15.63;3.50;;;10.30;99.90;;;;;;4989510;28;20207;-63
2023/05/29 05:13:27;;;;;;;18.42;3.67;;;10.40;99.90;;;;;;5003379;28;20369;-63
2023/05/29 05:15:53;;;;;;;13.10;3.10;;;10.40;99.90;;;;;;5002882;28;20038;-63
2023/05/29 05:18:19;;;;;;;15.75;3.70;;;10.50;99.90;;;;;;5013129;28;20485;-63
2023/05/29 05:20:45;;;;;;;12.32;2.88;;;10.50;99.90;;;;;;5009845;28;20167;-63
2023/05/29 05:23:11;;;;;;;15.00;3.65;;;10.50;99.90;;;;;;4992168;28;20378;-63
2023/05/29 05:25:38;;;;;;;18.17;3.22;;;10.50;99.90;;;;;;4994557;28;20100;-63
2023/05/29 05:28:04;;;;;;;12.18;3.20;;;10.60;99.90;;;;;;4989216;28;20528;-63
2023/05/29 05:30:30;;;;;;;16.73;3.10;;;10.60;99.90;;;;;;5001719;28;20113;-63
2023/05/29 05:32:56;;;;;;;15.25;2.80;;;10.60;99.90;;;;;;4985644;28;20125;-63
2023/05/29 05:35:22;;;;;;;19.90;3.65;;;10.70;99.90;;;;;;5008630;28;20050;-63
2023/05/29 05:37:48;;;;;;;18.70;3.45;;;10.70;99.90;;;;;;5005466;28;20035;-63
2023/05/29 05:40:13;;;;;;;11.80;2.88;;;10.70;99.90;;;;;;5004066;28;20053;-63
2023/05/29 05:42:39;;;;;;;11.77;3.42;;;10.80;99.90;;;;;;4991874;28;20041;-63
2023/05/29 05:45:06;;;;;;;15.70;3.05;;;10.80;99.90;;;;;;5006188;28;20038;-63
2023/05/29 05:47:32;;;;;;;14.95;3.20;;;10.90;99.90;;;;;;4987375;28;20060;-63
2023/05/29 05:49:58;;;;;;;19.10;3.90;;;10.90;99.90;;;;;;5011807;28;20042;-63
2023/05/29 05:52:25;;;;;;;18.67;3.60;;;10.90;99.90;;;;;;5012915;28;20044;-63
2023/05/29 05:54:51;;;;;;;13.25;3.58;;;11.00;99.90;;;;;;4975521;28;20052;-63
2023/05/29 05:57:17;;;;;;;14.50;3.35;;;11.00;99.90;;;;;;4996535;28;20034;-63
2023/05/29 05:59:43;;;;;;;9.55;2.97;;;11.00;99.90;;;;;;5009234;28;20484;-63
2023/05/29 06:02:08;;;;;;;18.40;3.00;;;11.00;99.90;;;;;;5009255;28;20469;-63
2023/05/29 06:04:35;;;;;;;10.88;2.70;;;11.10;99.90;;;;;;4990562;28;20045;-63
2023/05/29 06:07:01;;;;;;;13.82;3.15;;;11.10;99.90;;;;;;5006489;28;20185;-63
2023/05/29 06:09:26;;;;;;;12.93;3.35;;;11.10;99.90;;;;;;4975821;28;20543;-63
2023/05/29 06:11:52;;;;;;;13.63;3.40;;;11.20;99.90;;;;;;4990214;28;20042;-63
2023/05/29 06:14:17;;;;;;;15.68;3.20;;;11.20;99.90;;;;;;5010261;28;20042;-63
2023/05/29 06:16:43;;;;;;;14.50;3.40;;;11.20;99.90;;;;;;4989708;28;20132;-63
2023/05/29 06:19:10;;;;;;;21.05;3.40;;;11.20;99.90;;;;;;5010114;28;20037;-63
2023/05/29 06:21:35;;;;;;;15.32;3.50;;;11.30;99.90;;;;;;5003957;28;20503;-63
2023/05/29 06:24:01;;;;;;;18.58;3.40;;;11.30;99.90;;;;;;4988229;28;20125;-63
2023/05/29 06:26:27;;;;;;;13.88;3.28;;;11.30;99.90;;;;;;5006281;28;20026;-63
2023/05/29 06:28:53;;;;;;;14.55;3.38;;;11.40;99.90;;;;;;4994221;28;20033;-63
2023/05/29 06:31:19;;;;;;;18.48;3.40;;;11.40;99.90;;;;;;5005409;28;20046;-63
2023/05/29 06:33:45;;;;;;;14.55;3.35;;;11.40;99.90;;;;;;5023495;23;20518;-63
2023/05/29 06:36:11;;;;;;;14.93;3.40;;;11.50;99.90;;;;;;5031551;28;20375;-60
2023/05/29 06:38:37;;;;;;;15.32;3.08;;;11.50;99.90;;;;;;5035213;28;20043;-63
2023/05/29 06:41:02;;;;;;;19.98;3.45;;;11.50;99.90;;;;;;5034586;28;20055;-62
2023/05/29 06:43:28;;;;;;;13.27;3.08;;;11.60;99.90;;;;;;5014329;28;20037;-59
2023/05/29 06:45:54;;;;;;;12.38;3.35;;;11.70;99.90;;;;;;5039351;28;20037;-59
2023/05/29 06:48:20;;;;;;;17.80;3.13;;;11.70;99.90;;;;;;5039451;28;20032;-59
2023/05/29 06:50:47;;;;;;;13.07;3.35;;;11.80;99.90;;;;;;5047337;28;20039;-58
2023/05/29 06:53:13;;;;;;;15.63;3.60;;;11.90;99.90;;;;;;5016940;28;20041;-61
2023/05/29 06:55:40;;;;;;;14.90;3.33;;;11.90;99.90;;;;;;5029033;28;20041;-59
2023/05/29 06:58:06;;;;;;;11.73;3.40;;;12.00;99.90;;;;;;5043238;28;20049;-59
2023/05/29 07:00:32;;;;;;;9.50;3.00;;;12.10;99.90;;;;;;5031820;28;20034;-59
2023/05/29 07:02:57;;;;;;;16.58;3.28;;;12.20;99.90;;;;;;5033598;28;20064;-59
2023/05/29 07:05:23;;;;;;;10.18;2.80;;;12.30;99.90;;;;;;5030967;28;20029;-62
2023/05/29 07:07:49;;;;;;;18.35;3.47;;;12.20;99.90;;;;;;5035248;28;20029;-59
2023/05/29 07:10:15;;;;;;;18.67;3.58;;;12.30;99.90;;;;;;5036295;28;20029;-61
2023/05/29 07:12:40;;;;;;;14.50;3.50;;;12.40;99.90;;;;;;5013848;28;20087;-59
2023/05/29 07:15:06;;;;;;;12.60;3.05;;;12.40;99.90;;;;;;5030649;28;20040;-59
2023/05/29 07:17:32;;;;;;;20.40;3.75;;;12.50;99.90;;;;;;5043326;28;20036;-59
2023/05/29 07:19:58;;;;;;;13.48;2.78;;;12.60;99.90;;;;;;5022249;28;20051;-60
2023/05/29 07:22:24;;;;;;;11.45;2.90;;;12.60;99.90;;;;;;5030790;28;20034;-59
2023/05/29 07:24:50;;;;;;;12.95;3.17;;;12.60;99.90;;;;;;5042775;28;20041;-62
2023/05/29 07:27:15;;;;;;;15.25;3.42;;;12.70;99.90;;;;;;5035693;28;20505;-59
2023/05/29 07:29:41;;;;;;;11.73;3.03;;;12.80;99.90;;;;;;5026665;28;20407;-60
2023/05/29 07:32:06;;;;;;;16.50;3.70;;;12.80;99.90;;;;;;5035679;28;20123;-60
2023/05/29 07:34:32;;;;;;;16.95;3.83;;;12.90;99.90;;;;;;5047117;28;20035;-61
2023/05/29 07:37:02;;;;;;;17.98;4.25;;;12.90;99.90;;;;;;5031600;28;20045;-62
2023/05/29 07:39:28;;;;;;;17.23;3.97;;;12.90;99.90;;;;;;5035534;28;20072;-59
2023/05/29 07:41:53;;;;;;;19.83;3.67;;;13.10;99.90;;;;;;5040664;28;20530;-60
2023/05/29 07:44:19;;;;;;;15.18;3.20;;;13.00;99.90;;;;;;5036942;28;20032;-60
2023/05/29 07:46:45;;;;;;;13.57;3.30;;;13.10;99.90;;;;;;5033946;28;20064;-60
2023/05/29 07:49:11;;;;;;;14.50;3.45;;;13.10;99.90;;;;;;5030914;28;20030;-60
2023/05/29 07:51:36;;;;;;;19.13;3.50;;;13.20;99.90;;;;;;5038585;28;20139;-61
2023/05/29 07:54:02;;;;;;;11.63;3.00;;;13.20;99.90;;;;;;5041122;28;20033;-60
2023/05/29 07:56:29;;;;;;;14.82;3.83;;;13.30;99.90;;;;;;5041351;28;20546;-60
2023/05/29 07:58:54;;;;;;;12.02;3.50;;;13.40;99.90;;;;;;5014335;28;20046;-64
2023/05/29 08:01:23;;;;;;;16.67;3.67;;;13.40;99.90;;;;;;5015121;28;20045;-60
2023/05/29 08:03:49;;;;;;;14.93;3.42;;;13.40;99.90;;;;;;5023645;28;20030;-61
2023/05/29 08:06:15;;;;;;;17.60;4.20;;;13.50;99.90;;;;;;5037834;28;20506;-63
2023/05/29 08:08:41;;;;;;;14.25;3.55;;;13.50;99.90;;;;;;5021781;28;20487;-61
2023/05/29 08:11:06;;;;;;;19.42;3.67;;;13.60;99.90;;;;;;5034106;28;20045;-60
2023/05/29 08:13:32;;;;;;;14.43;3.35;;;13.70;99.90;;;;;;5019342;28;20258;-60
2023/05/29 08:15:58;;;;;;;12.18;3.60;;;13.70;99.90;;;;;;5022866;28;20508;-60
2023/05/29 08:18:27;;;;;;;13.90;3.55;;;13.80;99.90;;;;;;5037843;28;20039;-62
2023/05/29 08:20:52;;;;;;;14.65;3.60;;;13.90;99.90;;;;;;5031804;28;20079;-60
2023/05/29 08:23:18;;;;;;;19.88;3.92;;;14.00;99.90;;;;;;5035267;28;20037;-60
2023/05/29 08:25:45;;;;;;;16.33;3.90;;;14.10;99.90;;;;;;5013435;28;20609;-60
2023/05/29 08:28:10;;;;;;;12.63;3.78;;;14.30;99.90;;;;;;5048871;28;20033;-61
2023/05/29 08:30:37;;;;;;;15.50;3.83;;;14.50;99.90;;;;;;5032976;28;20096;-60
2023/05/29 08:33:03;;;;;;;14.50;3.67;;;14.70;99.90;;;;;;5011805;28;20046;-61
2023/05/29 08:35:29;;;;;;;15.23;4.53;;;14.90;99.90;;;;;;5037492;28;20033;-61
2023/05/29 08:37:54;;;;;;;12.75;3.65;;;15.10;99.90;;;;;;5029163;28;20414;-60
2023/05/29 08:40:20;;;;;;;11.45;3.90;;;15.20;99.90;;;;;;5013965;28;20498;-60
2023/05/29 08:43:02;;;;;;;13.35;3.97;;;15.40;99.90;;;;;;5041897;28;20056;-62
2023/05/29 08:45:29;;;;;;;12.25;3.55;;;15.50;99.90;;;;;;5021670;28;20037;-64
2023/05/29 08:47:57;;;;;;;11.93;3.50;;;15.70;99.90;;;;;;5033460;28;20491;-60
2023/05/29 08:50:23;;;;;;;14.88;3.45;;;15.90;99.90;;;;;;5046299;28;20033;-60
2023/05/29 08:52:50;;;;;;;12.20;3.92;;;16.10;99.90;;;;;;5019587;28;20056;-61
2023/05/29 08:55:16;;;;;;;16.98;3.45;;;16.20;99.90;;;;;;5033873;28;20046;-61
2023/05/29 08:57:45;;;;;;;14.35;3.80;;;16.30;99.90;;;;;;5047215;28;20037;-64
2023/05/29 09:00:15;;;;;;;14.60;3.92;;;16.40;99.90;;;;;;5034053;28;20033;-63
2023/05/29 09:02:43;;;;;;;15.20;3.67;;;16.50;99.90;;;;;;5036046;28;20037;-62
2023/05/29 09:05:09;;;;;;;14.38;4.07;;;16.60;99.90;;;;;;5013579;28;20048;-62
2023/05/29 09:07:38;;;;;;;17.55;3.90;;;16.60;99.90;;;;;;5022936;28;20082;-62
2023/05/29 09:10:06;;;;;;;16.10;4.00;;;16.60;99.90;;;;;;5030287;28;20029;-60
2023/05/29 09:12:32;;;;;;;13.27;3.67;;;16.60;99.80;;;;;;5027315;28;20076;-60
2023/05/29 09:14:58;;;;;;;17.33;3.70;;;16.70;99.90;;;;;;5035509;28;20048;-61
2023/05/29 09:17:24;;;;;;;15.50;3.72;;;16.70;99.70;;;;;;5026580;28;20032;-62
2023/05/29 09:19:50;;;;;;;12.18;3.83;;;16.80;99.50;;;;;;5026038;28;20037;-61
2023/05/29 09:22:16;;;;;;;16.05;3.75;;;17.00;99.00;;;;;;5041938;28;20033;-62
2023/05/29 09:24:45;;;;;;;13.38;3.65;;;17.00;98.70;;;;;;5035331;28;20111;-61
2023/05/29 09:27:14;;;;;;;16.40;3.65;;;17.00;98.40;;;;;;5036912;28;20048;-62
2023/05/29 09:29:45;;;;;;;12.65;3.53;;;17.00;98.20;;;;;;5031117;28;20070;-63
2023/05/29 09:32:18;;;;;;;14.50;3.90;;;17.00;97.90;;;;;;5023507;28;20080;-63
2023/05/29 09:34:44;;;;;;;15.85;3.75;;;17.00;97.60;;;;;;5046151;28;20128;-64
2023/05/29 09:37:13;;;;;;;14.45;3.70;;;17.00;98.30;;;;;;5040920;28;20036;-63
2023/05/29 09:39:41;;;;;;;13.05;3.65;;;17.10;98.10;;;;;;5031502;28;20503;-64
2023/05/29 09:42:08;;;;;;;14.00;3.60;;;17.00;97.60;;;;;;5022686;28;20040;-61
2023/05/29 09:44:34;;;;;;;16.45;3.55;;;17.10;97.70;;;;;;5034662;28;20039;-63
2023/05/29 09:47:00;;;;;;;14.07;3.70;;;17.20;97.70;;;;;;5036408;28;20038;-63
2023/05/29 09:49:27;;;;;;;15.38;3.72;;;17.30;97.60;;;;;;5039371;28;20063;-63
2023/05/29 09:51:56;;;;;;;16.27;3.80;;;17.50;97.70;;;;;;5032109;28;20411;-64
2023/05/29 09:54:22;;;;;;;12.38;3.40;;;17.50;97.40;;;;;;5038100;28;20048;-62
2023/05/29 09:56:47;;;;;;;16.40;3.47;;;17.70;97.30;;;;;;5034218;28;20407;-64
2023/05/29 09:59:14;;;;;;;14.52;3.95;;;17.80;96.90;;;;;;5035307;28;20372;-64
2023/05/29 10:01:42;;;;;;;12.70;3.65;;;17.80;96.70;;;;;;5013977;28;20175;-64
2023/05/29 10:04:11;;;;;;;15.00;3.50;;;17.90;96.50;;;;;;5027967;28;20044;-64
2023/05/29 10:06:48;;;;;;;19.10;3.97;;;18.00;96.40;;;;;;5016005;28;20042;-64
2023/05/29 10:09:17;;;;;;;16.00;4.28;;;18.00;95.70;;;;;;5015053;28;20390;-63
2023/05/29 10:11:44;;;;;;;11.70;3.35;;;18.00;95.60;;;;;;5044190;28;20041;-64
2023/05/29 10:14:14;;;;;;;11.88;3.67;;;18.00;95.70;;;;;;5015817;28;20048;-64
2023/05/29 10:16:43;;;;;;;16.65;3.40;;;18.10;95.30;;;;;;5038030;28;20041;-64
2023/05/29 10:19:15;;;;;;;14.20;3.53;;;18.10;95.30;;;;;;5028082;28;20037;-63
2023/05/29 10:21:42;;;;;;;11.93;3.45;;;18.10;94.80;;;;;;5033768;28;20050;-60
2023/05/29 10:24:10;;;;;;;13.50;3.63;;;18.20;94.90;;;;;;5043198;28;20398;-64
2023/05/29 10:26:39;;;;;;;12.20;3.40;;;18.30;94.70;;;;;;5018420;28;20052;-64
2023/05/29 10:29:22;;;;;;;13.25;3.42;;;18.40;94.30;;;;;;5021853;28;20478;-63
2023/05/29 10:32:12;;;;;;;14.45;3.53;;;18.50;93.00;;;;;;5043226;28;20060;-64
2023/05/29 10:34:50;;;;;;;14.38;3.00;;;18.70;93.50;;;;;;5017479;28;20048;-64
2023/05/29 10:37:32;;;;;;;14.15;3.72;;;18.80;93.30;;;;;;5032149;28;20135;-65
2023/05/29 10:40:06;;;;;;;16.98;3.72;;;19.00;93.20;;;;;;5045041;28;20399;-63
2023/05/29 10:42:46;;;;;;;12.88;3.70;;;19.00;93.00;;;;;;5023812;28;20044;-64
2023/05/29 10:45:32;;;;;;;15.07;3.80;;;19.10;92.70;;;;;;5003138;28;20045;-64
2023/05/29 10:48:06;;;;;;;12.60;3.55;;;19.40;92.40;;;;;;5004568;28;20095;-64
2023/05/29 10:50:41;;;;;;;12.63;3.50;;;19.50;92.00;;;;;;5019385;28;20482;-64
2023/05/29 10:53:10;;;;;;;14.18;3.78;;;19.60;91.00;;;;;;5027223;28;20072;-64
2023/05/29 10:55:40;;;;;;;13.98;3.50;;;19.60;91.50;;;;;;5045712;28;20037;-63
2023/05/29 10:58:06;;;;;;;10.35;2.97;;;19.60;91.20;;;;;;5013470;28;20128;-63
2023/05/29 11:00:32;;;;;;;15.15;4.18;;;19.60;91.10;;;;;;5038880;28;20110;-64
2023/05/29 11:03:03;;;;;;;12.10;3.60;;;19.70;90.90;;;;;;5039959;28;20049;-64
2023/05/29 11:05:29;;;;;;;11.32;3.45;;;19.70;90.20;;;;;;5031934;28;20052;-64
2023/05/29 11:08:05;;;;;;;18.65;3.90;;;19.70;90.30;;;;;;5020601;28;20502;-64
2023/05/29 11:10:46;;;;;;;10.70;3.13;;;19.70;90.00;;;;;;5033299;28;20041;-64
2023/05/29 11:13:34;;;;;;;11.70;3.27;;;19.80;88.60;;;;;;5009300;28;20142;-64
2023/05/29 11:16:24;;;;;;;11.35;3.50;;;19.70;87.30;;;;;;5038280;28;20267;-63
2023/05/29 11:18:52;;;;;;;12.75;3.42;;;19.70;87.30;;;;;;5021945;28;20037;-64
2023/05/29 11:21:38;;;;;;;12.20;3.50;;;19.70;88.00;;;;;;5023331;28;20030;-64
2023/05/29 11:24:07;;;;;;;9.88;3.22;;;19.90;86.80;;;;;;5019096;28;20394;-64
2023/05/29 11:26:36;;;;;;;9.80;2.88;;;20.10;87.30;;;;;;5035230;28;20496;-64
2023/05/29 11:29:10;;;;;;;14.45;3.50;;;20.20;86.30;;;;;;5041840;28;20120;-64
2023/05/29 11:31:37;;;;;;;13.27;3.67;;;20.20;85.40;;;;;;5035221;28;20061;-64
2023/05/29 11:34:05;;;;;;;12.82;3.20;;;20.30;85.00;;;;;;5038196;28;20494;-64
2023/05/29 11:36:34;;;;;;;12.10;3.20;;;20.30;84.80;;;;;;5038879;28;20448;-64
2023/05/29 11:39:01;;;;;;;14.93;3.03;;;20.40;84.50;;;;;;5040944;28;20042;-63
2023/05/29 11:41:27;;;;;;;14.20;3.63;;;20.50;84.20;;;;;;5043381;28;20037;-64
2023/05/29 11:44:02;;;;;;;11.90;3.25;;;20.50;83.40;;;;;;5039325;28;20037;-64
2023/05/29 11:46:30;;;;;;;10.75;3.10;;;20.50;82.30;;;;;;5030516;28;20480;-64
2023/05/29 11:48:56;;;;;;;13.93;3.90;;;20.60;83.30;;;;;;5031748;28;20057;-64
2023/05/29 11:51:22;;;;;;;9.15;3.08;;;20.70;82.80;;;;;;5032057;28;20037;-64
2023/05/29 11:53:48;;;;;;;10.25;3.33;;;20.80;82.70;;;;;;5029647;28;20117;-64
2023/05/29 11:56:14;;;;;;;15.80;3.70;;;20.80;81.50;;;;;;5030433;28;20045;-64
2023/05/29 11:58:40;;;;;;;9.82;3.13;;;20.80;81.00;;;;;;5020585;28;20036;-64
2023/05/29 12:01:10;;;;;;;10.43;3.65;;;20.90;80.20;;;;;;5029814;28;20044;-64
2023/05/29 12:03:40;;;;;;;10.10;3.05;;;20.90;80.10;;;;;;5038891;28;20072;-64
2023/05/29 12:06:07;;;;;;;11.30;3.67;;;21.00;79.80;;;;;;5047152;28;20041;-61
2023/05/29 12:08:33;;;;;;;12.27;3.28;;;21.10;80.10;;;;;;5013783;28;20820;-64
2023/05/29 12:10:59;;;;;;;11.07;3.28;;;21.10;79.10;;;;;;5030703;28;20069;-65
2023/05/29 12:13:24;;;;;;;11.70;3.30;;;21.10;78.10;;;;;;4995925;28;20041;-65
2023/05/29 12:15:54;;;;;;;12.13;3.50;;;21.00;76.80;;;;;;5050877;28;20043;-64
2023/05/29 12:18:20;;;;;;;10.25;3.33;;;20.90;75.80;;;;;;5039898;28;20434;-64
2023/05/29 12:20:46;;;;;;;10.38;3.33;;;20.80;75.90;;;;;;5034824;28;20116;-63
2023/05/29 12:23:14;;;;;;;12.25;2.97;;;20.70;76.20;;;;;;5042575;28;20158;-63
2023/05/29 12:25:40;;;;;;;10.00;3.17;;;20.60;76.20;;;;;;5016421;28;20056;-64
2023/05/29 12:28:06;;;;;;;8.23;3.17;;;20.50;76.40;;;;;;5034214;28;20483;-63
2023/05/29 12:30:38;;;;;;;11.95;3.10;;;20.50;76.80;;;;;;5035644;28;20053;-61
2023/05/29 12:35:35;;;;;;;12.23;3.45;;;20.80;76.10;;;;;;5031553;28;20053;-61
2023/05/29 12:38:04;;;;;;;11.00;2.90;;;20.80;75.80;;;;;;5041146;28;20414;-61
2023/05/29 12:40:33;;;;;;;10.48;3.20;;;20.80;75.10;;;;;;5041140;28;20395;-61
2023/05/29 12:43:08;;;;;;;10.00;3.20;;;20.70;74.30;;;;;;5034712;28;20041;-61